createdAt,value
2023-05-18T00:00:29.911Z,16.90
2023-05-18T00:01:30.173Z,16.00
2023-05-18T00:02:30.386Z,13.20
2023-05-18T00:03:30.714Z,13.00
2023-05-18T00:04:30.775Z,15.60
2023-05-18T00:05:31.148Z,14.10
2023-05-18T00:06:31.121Z,14.90
2023-05-18T00:07:31.399Z,14.40
2023-05-18T00:08:31.558Z,16.60
2023-05-18T00:09:31.818Z,20.90
2023-05-18T00:10:32.001Z,13.10
2023-05-18T00:11:32.154Z,13.60
2023-05-18T00:12:32.314Z,13.30
2023-05-18T00:13:32.480Z,14.50
2023-05-18T00:14:32.645Z,13.50
2023-05-18T00:15:32.950Z,18.10
2023-05-18T00:16:33.095Z,15.70
2023-05-18T00:17:33.299Z,13.80
2023-05-18T00:18:33.419Z,19.10
2023-05-18T00:19:33.693Z,14.50
2023-05-18T00:20:33.853Z,18.20
2023-05-18T00:21:34.026Z,12.30
2023-05-18T00:22:34.196Z,14.10
2023-05-18T00:23:34.350Z,17.60
2023-05-18T00:24:36.858Z,14.10
2023-05-18T00:25:34.744Z,17.00
2023-05-18T00:26:34.875Z,16.20
2023-05-18T00:27:35.054Z,16.40
2023-05-18T00:28:35.200Z,11.30
2023-05-18T00:29:35.472Z,10.90
2023-05-18T00:30:35.650Z,15.40
2023-05-18T00:31:35.861Z,16.10
2023-05-18T00:32:36.081Z,14.10
2023-05-18T00:33:36.185Z,16.50
2023-05-18T00:34:37.325Z,17.80
2023-05-18T00:35:36.607Z,14.70
2023-05-18T00:36:36.763Z,13.70
2023-05-18T00:37:36.944Z,14.00
2023-05-18T00:38:37.109Z,13.60
2023-05-18T00:39:37.279Z,16.50
2023-05-18T00:40:37.438Z,17.90
2023-05-18T00:41:37.616Z,15.90
2023-05-18T00:42:37.789Z,19.90
2023-05-18T00:43:37.950Z,14.90
2023-05-18T00:44:38.115Z,16.00
2023-05-18T00:45:38.400Z,12.90
2023-05-18T00:46:38.545Z,17.30
2023-05-18T00:47:38.802Z,13.50
2023-05-18T00:48:38.968Z,18.10
2023-05-18T00:49:39.168Z,13.00
2023-05-18T00:50:39.317Z,12.20
2023-05-18T00:51:39.606Z,14.60
2023-05-18T00:52:39.787Z,20.40
2023-05-18T00:53:41.563Z,11.50
2023-05-18T00:54:40.206Z,17.50
2023-05-18T00:55:40.410Z,17.10
2023-05-18T00:56:40.557Z,14.60
2023-05-18T00:57:40.862Z,13.00
2023-05-18T00:58:41.019Z,15.00
2023-05-18T00:59:41.309Z,20.20
2023-05-18T01:00:41.486Z,15.70
2023-05-18T01:01:41.725Z,17.60
2023-05-18T01:02:41.959Z,15.90
2023-05-18T01:03:42.088Z,17.60
2023-05-18T01:04:42.218Z,16.10
2023-05-18T01:05:42.399Z,12.70
2023-05-18T01:06:42.599Z,18.00
2023-05-18T01:07:42.764Z,16.80
2023-05-18T01:08:42.924Z,17.60
2023-05-18T01:09:43.221Z,22.30
2023-05-18T01:10:43.423Z,16.80
2023-05-18T01:11:43.588Z,14.00
2023-05-18T01:12:43.780Z,16.10
2023-05-18T01:13:44.051Z,18.40
2023-05-18T01:14:44.193Z,21.20
2023-05-18T01:15:44.378Z,16.70
2023-05-18T01:16:44.581Z,20.50
2023-05-18T01:17:44.784Z,17.30
2023-05-18T01:18:44.944Z,15.00
2023-05-18T01:19:45.098Z,19.00
2023-05-18T01:20:45.266Z,17.70
2023-05-18T01:21:45.618Z,18.60
2023-05-18T01:22:45.702Z,14.00
2023-05-18T01:23:45.895Z,15.20
2023-05-18T01:24:46.063Z,18.00
2023-05-18T01:25:46.231Z,12.60
2023-05-18T01:26:46.403Z,15.20
2023-05-18T01:27:46.699Z,14.60
2023-05-18T01:28:46.760Z,17.80
2023-05-18T01:29:46.907Z,12.40
2023-05-18T01:30:47.123Z,12.60
2023-05-18T01:31:47.270Z,19.30
2023-05-18T01:32:47.521Z,15.80
2023-05-18T01:33:47.613Z,14.80
2023-05-18T01:34:47.777Z,15.80
2023-05-18T01:35:48.297Z,16.60
2023-05-18T01:36:48.095Z,17.10
2023-05-18T01:37:48.271Z,21.20
2023-05-18T01:38:48.428Z,18.10
2023-05-18T01:39:48.686Z,17.30
2023-05-18T01:40:48.841Z,17.70
2023-05-18T01:41:48.999Z,20.20
2023-05-18T01:42:49.161Z,15.50
2023-05-18T01:43:49.335Z,19.50
2023-05-18T01:44:49.487Z,17.10
2023-05-18T01:45:49.760Z,16.80
2023-05-18T01:46:50.045Z,16.70
2023-05-18T01:47:50.200Z,14.60
2023-05-18T01:48:50.342Z,16.60
2023-05-18T01:49:50.513Z,13.30
2023-05-18T01:50:50.693Z,19.80
2023-05-18T01:51:50.854Z,15.80
2023-05-18T01:52:51.050Z,19.20
2023-05-18T01:53:51.214Z,18.60
2023-05-18T01:54:51.408Z,16.00
2023-05-18T01:55:51.564Z,17.10
2023-05-18T01:56:51.740Z,14.30
2023-05-18T01:57:51.926Z,14.50
2023-05-18T01:58:52.068Z,19.80
2023-05-18T01:59:52.387Z,19.90
2023-05-18T02:00:52.545Z,15.60
2023-05-18T02:01:59.193Z,22.20
2023-05-18T02:02:54.051Z,17.20
2023-05-18T02:03:53.331Z,15.90
2023-05-18T02:04:53.342Z,19.10
2023-05-18T02:05:53.627Z,16.00
2023-05-18T02:06:53.856Z,16.10
2023-05-18T02:07:54.064Z,17.70
2023-05-18T02:08:54.208Z,17.10
2023-05-18T02:09:54.373Z,16.70
2023-05-18T02:10:54.534Z,17.20
2023-05-18T02:11:54.831Z,16.80
2023-05-18T02:12:55.001Z,17.30
2023-05-18T02:13:55.167Z,17.00
2023-05-18T02:14:55.354Z,13.40
2023-05-18T02:15:55.648Z,15.50
2023-05-18T02:16:55.770Z,19.20
2023-05-18T02:17:56.018Z,18.20
2023-05-18T02:18:56.243Z,17.20
2023-05-18T02:19:56.386Z,16.60
2023-05-18T02:20:56.558Z,17.60
2023-05-18T02:21:56.817Z,15.80
2023-05-18T02:22:57.006Z,16.70
2023-05-18T02:23:57.163Z,13.10
2023-05-18T02:24:57.369Z,13.70
2023-05-18T02:25:57.598Z,17.10
2023-05-18T02:26:57.806Z,15.00
2023-05-18T02:27:58.001Z,19.60
2023-05-18T02:28:58.188Z,18.10
2023-05-18T02:29:58.353Z,16.20
2023-05-18T02:30:58.537Z,17.00
2023-05-18T02:31:58.747Z,17.70
2023-05-18T02:32:58.906Z,14.60
2023-05-18T02:33:59.098Z,19.70
2023-05-18T02:34:59.276Z,15.20
2023-05-18T02:35:59.491Z,19.50
2023-05-18T02:36:59.697Z,19.80
2023-05-18T02:37:59.862Z,21.60
2023-05-18T02:39:00.103Z,19.00
2023-05-18T02:40:00.271Z,15.20
2023-05-18T02:41:00.439Z,16.00
2023-05-18T02:42:00.608Z,15.40
2023-05-18T02:43:00.766Z,15.60
2023-05-18T02:44:00.928Z,14.20
2023-05-18T02:45:01.101Z,23.00
2023-05-18T02:46:01.322Z,18.50
2023-05-18T02:47:01.446Z,15.90
2023-05-18T02:48:01.681Z,14.20
2023-05-18T02:49:01.808Z,15.90
2023-05-18T02:50:02.107Z,16.50
2023-05-18T02:51:02.277Z,12.60
2023-05-18T02:52:02.434Z,19.00
2023-05-18T02:53:02.614Z,21.20
2023-05-18T02:54:02.789Z,18.00
2023-05-18T02:55:02.959Z,19.10
2023-05-18T02:56:03.133Z,16.10
2023-05-18T02:57:03.291Z,19.60
2023-05-18T02:58:03.608Z,16.40
2023-05-18T02:59:03.991Z,19.00
2023-05-18T03:00:04.031Z,19.50
2023-05-18T03:01:04.210Z,18.40
2023-05-18T03:02:04.391Z,22.50
2023-05-18T03:03:04.602Z,17.40
2023-05-18T03:04:04.727Z,17.20
2023-05-18T03:05:04.893Z,14.00
2023-05-18T03:06:05.057Z,17.50
2023-05-18T03:07:05.217Z,24.20
2023-05-18T03:08:05.546Z,16.60
2023-05-18T03:09:05.736Z,13.90
2023-05-18T03:10:05.891Z,16.50
2023-05-18T03:11:06.062Z,12.00
2023-05-18T03:12:06.332Z,16.10
2023-05-18T03:13:06.523Z,16.70
2023-05-18T03:14:06.695Z,11.70
2023-05-18T03:15:06.840Z,18.60
2023-05-18T03:16:07.142Z,13.90
2023-05-18T03:17:07.342Z,16.80
2023-05-18T03:18:07.619Z,21.90
2023-05-18T03:19:07.843Z,16.00
2023-05-18T03:20:08.021Z,20.80
2023-05-18T03:21:08.182Z,20.10
2023-05-18T03:22:08.356Z,17.20
2023-05-18T03:23:08.518Z,19.00
2023-05-18T03:24:08.721Z,15.00
2023-05-18T03:25:08.885Z,22.10
2023-05-18T03:26:09.142Z,25.50
2023-05-18T03:27:09.301Z,20.50
2023-05-18T03:28:09.609Z,16.40
2023-05-18T03:29:09.768Z,20.20
2023-05-18T03:30:09.944Z,17.00
2023-05-18T03:31:10.181Z,25.60
2023-05-18T03:32:10.411Z,15.60
2023-05-18T03:33:10.735Z,19.70
2023-05-18T03:34:10.820Z,22.00
2023-05-18T03:35:10.988Z,20.80
2023-05-18T03:36:11.182Z,28.80
2023-05-18T03:37:11.342Z,17.30
2023-05-18T03:38:11.527Z,18.20
2023-05-18T03:39:11.693Z,21.00
2023-05-18T03:40:11.907Z,23.80
2023-05-18T03:41:12.045Z,19.50
2023-05-18T03:42:12.208Z,21.20
2023-05-18T03:43:12.383Z,16.80
2023-05-18T03:44:12.559Z,22.40
2023-05-18T03:45:12.696Z,22.30
2023-05-18T03:46:13.055Z,18.30
2023-05-18T03:47:13.168Z,23.60
2023-05-18T03:48:13.649Z,20.00
2023-05-18T03:49:13.686Z,21.10
2023-05-18T03:50:13.877Z,19.20
2023-05-18T03:51:14.040Z,20.30
2023-05-18T03:52:14.240Z,19.50
2023-05-18T03:53:14.393Z,20.60
2023-05-18T03:54:14.582Z,18.50
2023-05-18T03:55:14.753Z,21.00
2023-05-18T03:56:14.950Z,20.90
2023-05-18T03:57:15.096Z,19.80
2023-05-18T03:58:15.279Z,26.40
2023-05-18T03:59:15.463Z,20.80
2023-05-18T04:00:15.619Z,24.10
2023-05-18T04:01:15.841Z,23.80
2023-05-18T04:02:16.113Z,19.40
2023-05-18T04:03:16.273Z,19.00
2023-05-18T04:04:16.465Z,16.20
2023-05-18T04:05:16.610Z,18.20
2023-05-18T04:06:16.785Z,18.10
2023-05-18T04:07:16.968Z,20.70
2023-05-18T04:08:17.139Z,25.80
2023-05-18T04:09:17.333Z,21.00
2023-05-18T04:10:17.501Z,17.00
2023-05-18T04:11:17.779Z,21.80
2023-05-18T04:12:17.916Z,19.30
2023-05-18T04:13:18.219Z,19.30
2023-05-18T04:14:18.384Z,20.20
2023-05-18T04:15:18.659Z,20.90
2023-05-18T04:16:18.905Z,18.30
2023-05-18T04:17:19.063Z,20.60
2023-05-18T04:18:19.240Z,21.00
2023-05-18T04:19:19.443Z,23.10
2023-05-18T04:20:19.599Z,22.70
2023-05-18T04:21:19.793Z,19.60
2023-05-18T04:22:19.968Z,23.10
2023-05-18T04:23:20.147Z,18.50
2023-05-18T04:24:20.295Z,18.50
2023-05-18T04:25:20.469Z,21.00
2023-05-18T04:26:20.620Z,20.00
2023-05-18T04:27:20.908Z,21.00
2023-05-18T04:28:21.108Z,19.20
2023-05-18T04:29:21.310Z,19.10
2023-05-18T04:30:21.486Z,16.60
2023-05-18T04:31:21.704Z,17.90
2023-05-18T04:32:21.811Z,19.30
2023-05-18T04:33:22.093Z,16.00
2023-05-18T04:34:22.273Z,16.50
2023-05-18T04:35:22.432Z,21.80
2023-05-18T04:36:22.609Z,18.00
2023-05-18T04:37:22.769Z,16.50
2023-05-18T04:38:22.931Z,15.50
2023-05-18T04:39:23.131Z,16.40
2023-05-18T04:40:23.291Z,18.70
2023-05-18T04:41:23.576Z,18.40
2023-05-18T04:42:23.743Z,18.20
2023-05-18T04:43:23.912Z,18.50
2023-05-18T04:44:24.070Z,22.80
2023-05-18T04:45:24.326Z,16.80
2023-05-18T04:46:24.577Z,16.30
2023-05-18T04:47:24.765Z,17.80
2023-05-18T04:48:24.858Z,18.80
2023-05-18T04:49:25.122Z,14.50
2023-05-18T04:50:25.285Z,19.10
2023-05-18T04:51:25.438Z,19.70
2023-05-18T04:52:25.587Z,17.30
2023-05-18T04:53:25.856Z,17.80
2023-05-18T04:54:26.031Z,16.90
2023-05-18T04:55:26.565Z,18.70
2023-05-18T04:56:26.434Z,17.20
2023-05-18T04:57:26.605Z,19.10
2023-05-18T04:58:27.835Z,15.30
2023-05-18T04:59:27.044Z,20.40
2023-05-18T05:00:27.194Z,20.10
2023-05-18T05:01:27.508Z,16.30
2023-05-18T05:02:27.667Z,20.20
2023-05-18T05:03:28.021Z,20.00
2023-05-18T05:04:28.064Z,21.50
2023-05-18T05:05:28.456Z,18.10
2023-05-18T05:06:28.521Z,18.30
2023-05-18T05:07:28.676Z,17.70
2023-05-18T05:08:28.859Z,18.00
2023-05-18T05:09:29.031Z,15.00
2023-05-18T05:10:29.187Z,16.70
2023-05-18T05:11:29.345Z,17.50
2023-05-18T05:12:29.546Z,21.20
2023-05-18T05:13:29.775Z,22.50
2023-05-18T05:14:29.921Z,18.50
2023-05-18T05:15:30.329Z,15.20
2023-05-18T05:16:30.521Z,19.80
2023-05-18T05:17:30.636Z,14.80
2023-05-18T05:18:30.768Z,17.60
2023-05-18T05:19:30.962Z,18.30
2023-05-18T05:20:31.071Z,14.40
2023-05-18T05:21:31.357Z,17.50
2023-05-18T05:22:31.547Z,17.30
2023-05-18T05:23:31.709Z,17.00
2023-05-18T05:24:31.829Z,16.90
2023-05-18T05:25:32.306Z,16.10
2023-05-18T05:26:32.270Z,18.10
2023-05-18T05:27:32.550Z,16.70
2023-05-18T05:28:32.730Z,15.80
2023-05-18T05:29:32.867Z,18.00
2023-05-18T05:30:33.008Z,14.20
2023-05-18T05:31:33.315Z,15.10
2023-05-18T05:32:33.469Z,20.00
2023-05-18T05:33:33.727Z,18.80
2023-05-18T05:34:33.932Z,21.80
2023-05-18T05:35:34.486Z,20.30
2023-05-18T05:36:34.338Z,19.60
2023-05-18T05:37:34.525Z,14.70
2023-05-18T05:38:34.765Z,16.60
2023-05-18T05:39:34.925Z,15.80
2023-05-18T05:40:35.089Z,19.60
2023-05-18T05:41:35.290Z,22.90
2023-05-18T05:42:35.432Z,18.60
2023-05-18T05:43:35.628Z,19.10
2023-05-18T05:44:35.765Z,20.20
2023-05-18T05:45:35.924Z,18.00
2023-05-18T05:46:36.100Z,17.30
2023-05-18T05:47:36.281Z,18.10
2023-05-18T05:48:36.424Z,13.80
2023-05-18T05:49:36.605Z,16.40
2023-05-18T05:50:36.756Z,16.70
2023-05-18T05:51:37.021Z,17.90
2023-05-18T05:52:37.163Z,19.20
2023-05-18T05:53:37.429Z,18.40
2023-05-18T05:54:37.566Z,14.30
2023-05-18T05:55:37.839Z,17.10
2023-05-18T05:56:37.988Z,15.80
2023-05-18T05:57:38.155Z,14.30
2023-05-18T05:58:38.325Z,17.10
2023-05-18T06:00:46.482Z,15.60
2023-05-18T06:01:46.550Z,16.60
2023-05-18T06:02:46.675Z,18.00
2023-05-18T06:03:46.834Z,13.20
2023-05-18T06:04:46.806Z,16.80
2023-05-18T06:05:46.900Z,16.30
2023-05-18T06:06:46.960Z,19.20
2023-05-18T06:07:47.198Z,17.00
2023-05-18T06:08:47.318Z,18.90
2023-05-18T06:09:47.385Z,17.50
2023-05-18T06:10:47.451Z,20.60
2023-05-18T06:11:47.574Z,19.70
2023-05-18T06:12:47.635Z,16.90
2023-05-18T06:13:47.842Z,14.40
2023-05-18T06:14:47.907Z,16.90
2023-05-18T06:15:47.998Z,18.50
2023-05-18T06:16:48.093Z,18.00
2023-05-18T06:17:48.187Z,14.00
2023-05-18T06:18:48.219Z,13.40
2023-05-18T06:19:48.270Z,14.60
2023-05-18T06:20:48.318Z,17.10
2023-05-18T06:21:48.388Z,13.60
2023-05-18T06:22:48.439Z,17.80
2023-05-18T06:23:48.508Z,11.40
2023-05-18T06:24:48.610Z,14.40
2023-05-18T06:25:48.666Z,14.50
2023-05-18T06:26:48.689Z,16.50
2023-05-18T06:27:48.735Z,15.30
2023-05-18T06:28:48.781Z,14.10
2023-05-18T06:29:48.820Z,14.80
2023-05-18T06:30:48.844Z,15.80
2023-05-18T06:31:48.984Z,14.40
2023-05-18T06:32:49.019Z,12.90
2023-05-18T06:33:49.040Z,15.90
2023-05-18T06:34:49.056Z,17.20
2023-05-18T06:35:49.127Z,13.50
2023-05-18T06:36:49.133Z,17.10
2023-05-18T06:37:49.170Z,16.80
2023-05-18T06:38:49.243Z,15.70
2023-05-18T06:39:49.268Z,13.00
2023-05-18T06:40:49.277Z,12.20
2023-05-18T06:41:49.312Z,15.50
2023-05-18T06:42:49.311Z,15.40
2023-05-18T06:43:49.447Z,11.90
2023-05-18T06:44:49.544Z,16.30
2023-05-18T06:45:49.640Z,12.10
2023-05-18T06:46:49.643Z,13.10
2023-05-18T06:47:49.756Z,16.40
2023-05-18T06:48:49.773Z,14.80
2023-05-18T06:49:49.780Z,15.10
2023-05-18T06:50:49.802Z,15.40
2023-05-18T06:51:49.809Z,14.70
2023-05-18T06:52:49.830Z,13.00
2023-05-18T06:53:49.861Z,12.60
2023-05-18T06:54:49.878Z,14.80
2023-05-18T06:55:49.890Z,10.90
2023-05-18T06:56:49.913Z,15.10
2023-05-18T06:57:49.950Z,14.70
2023-05-18T06:58:49.995Z,14.80
2023-05-18T06:59:49.998Z,13.30
2023-05-18T07:00:50.030Z,12.10
2023-05-18T07:01:50.115Z,11.80
2023-05-18T07:02:50.079Z,11.20
2023-05-18T07:03:50.121Z,14.20
2023-05-18T07:04:50.092Z,14.40
2023-05-18T07:05:50.098Z,14.60
2023-05-18T07:06:50.128Z,13.80
2023-05-18T07:07:50.160Z,11.30
2023-05-18T07:08:50.148Z,16.00
2023-05-18T07:09:50.177Z,15.00
2023-05-18T07:10:50.177Z,15.40
2023-05-18T07:11:50.186Z,13.50
2023-05-18T07:12:50.186Z,10.80
2023-05-18T07:13:50.193Z,19.10
2023-05-18T07:14:50.228Z,11.40
2023-05-18T07:15:50.256Z,11.70
2023-05-18T07:16:50.238Z,14.10
2023-05-18T07:17:50.275Z,9.10
2023-05-18T07:18:50.352Z,14.00
2023-05-18T07:19:50.318Z,8.90
2023-05-18T07:20:50.321Z,13.80
2023-05-18T07:21:50.335Z,11.10
2023-05-18T07:22:50.332Z,13.60
2023-05-18T07:23:50.366Z,12.00
2023-05-18T07:24:50.384Z,11.20
2023-05-18T07:25:50.418Z,13.30
2023-05-18T07:26:50.420Z,16.30
2023-05-18T07:27:50.426Z,11.40
2023-05-18T07:28:50.438Z,14.20
2023-05-18T07:29:50.455Z,12.50
2023-05-18T07:30:50.508Z,13.90
2023-05-18T07:31:50.540Z,13.00
2023-05-18T07:32:50.542Z,13.90
2023-05-18T07:33:50.574Z,12.30
2023-05-18T07:34:50.572Z,12.70
2023-05-18T07:35:50.591Z,12.70
2023-05-18T07:36:50.591Z,12.60
2023-05-18T07:37:50.621Z,11.90
2023-05-18T07:38:50.688Z,10.10
2023-05-18T07:39:50.677Z,10.90
2023-05-18T07:40:50.692Z,12.20
2023-05-18T07:41:50.715Z,16.70
2023-05-18T07:42:50.728Z,14.60
2023-05-18T07:43:50.808Z,11.80
2023-05-18T07:44:50.783Z,12.70
2023-05-18T07:45:50.774Z,9.30
2023-05-18T07:46:50.801Z,12.60
2023-05-18T07:47:50.806Z,11.10
2023-05-18T07:48:50.839Z,13.60
2023-05-18T07:49:50.827Z,12.30
2023-05-18T07:50:50.793Z,10.40
2023-05-18T07:51:50.797Z,9.90
2023-05-18T07:52:50.784Z,13.50
2023-05-18T07:53:50.742Z,9.40
2023-05-18T07:54:50.723Z,11.90
2023-05-18T07:55:50.700Z,11.70
2023-05-18T07:56:50.696Z,10.30
2023-05-18T07:57:50.693Z,11.80
2023-05-18T07:58:50.673Z,13.60
2023-05-18T07:59:50.687Z,11.80
2023-05-18T08:00:50.664Z,8.30
2023-05-18T08:01:50.664Z,9.70
2023-05-18T08:02:50.757Z,10.00
2023-05-18T08:03:50.697Z,14.70
2023-05-18T08:04:50.646Z,10.20
2023-05-18T08:05:50.625Z,13.00
2023-05-18T08:06:50.600Z,14.80
2023-05-18T08:07:50.569Z,10.00
2023-05-18T08:08:50.516Z,11.60
2023-05-18T08:09:50.511Z,9.30
2023-05-18T08:10:50.489Z,10.60
2023-05-18T08:11:50.487Z,10.20
2023-05-18T08:12:50.457Z,8.30
2023-05-18T08:13:50.441Z,11.90
2023-05-18T08:14:50.404Z,8.60
2023-05-18T08:15:59.251Z,9.80
2023-05-18T08:16:51.386Z,9.80
2023-05-18T08:17:50.428Z,17.20
2023-05-18T08:18:50.473Z,8.90
2023-05-18T08:19:50.451Z,11.10
2023-05-18T08:20:50.453Z,12.80
2023-05-18T08:21:50.484Z,9.30
2023-05-18T08:22:50.472Z,12.20
2023-05-18T08:23:50.483Z,18.10
2023-05-18T08:24:50.477Z,11.10
2023-05-18T08:25:50.492Z,11.40
2023-05-18T08:26:50.478Z,12.60
2023-05-18T08:27:50.470Z,11.60
2023-05-18T08:28:50.461Z,10.90
2023-05-18T08:29:50.475Z,10.40
2023-05-18T08:30:50.462Z,13.90
2023-05-18T08:31:50.622Z,9.90
2023-05-18T08:32:50.515Z,10.70
2023-05-18T08:33:50.493Z,11.20
2023-05-18T08:34:50.494Z,14.30
2023-05-18T08:35:50.462Z,11.00
2023-05-18T08:36:50.459Z,10.80
2023-05-18T08:37:50.482Z,8.00
2023-05-18T08:38:50.464Z,8.20
2023-05-18T08:39:50.470Z,10.00
2023-05-18T08:40:50.454Z,11.70
2023-05-18T08:41:50.445Z,13.00
2023-05-18T08:42:50.927Z,11.80
2023-05-18T08:43:50.473Z,13.40
2023-05-18T08:44:50.472Z,8.00
2023-05-18T08:45:50.450Z,10.20
2023-05-18T08:46:50.468Z,10.20
2023-05-18T08:47:50.523Z,10.80
2023-05-18T08:48:50.560Z,9.80
2023-05-18T08:49:50.508Z,14.90
2023-05-18T08:50:50.535Z,13.50
2023-05-18T08:51:50.520Z,8.30
2023-05-18T08:52:50.496Z,8.20
2023-05-18T08:53:50.500Z,10.50
2023-05-18T08:54:50.488Z,12.00
2023-05-18T08:55:50.462Z,10.10
2023-05-18T08:56:50.437Z,12.40
2023-05-18T08:57:50.427Z,10.60
2023-05-18T08:58:50.382Z,10.30
2023-05-18T08:59:50.348Z,9.80
2023-05-18T09:00:50.308Z,9.80
2023-05-18T09:01:50.276Z,12.80
2023-05-18T09:02:50.220Z,10.20
2023-05-18T09:03:50.135Z,8.20
2023-05-18T09:04:50.131Z,8.40
2023-05-18T09:05:50.051Z,10.10
2023-05-18T09:06:49.986Z,10.30
2023-05-18T09:07:49.945Z,10.40
2023-05-18T09:08:49.912Z,8.50
2023-05-18T09:09:49.853Z,9.20
2023-05-18T09:10:49.836Z,10.50
2023-05-18T09:11:49.827Z,10.70
2023-05-18T09:12:49.776Z,12.50
2023-05-18T09:13:49.751Z,9.40
2023-05-18T09:14:49.709Z,10.00
2023-05-18T09:15:49.732Z,12.30
2023-05-18T09:16:49.696Z,9.40
2023-05-18T09:17:49.800Z,8.00
2023-05-18T09:18:49.772Z,11.60
2023-05-18T09:19:49.734Z,6.20
2023-05-18T09:20:49.774Z,11.10
2023-05-18T09:21:49.763Z,11.10
2023-05-18T09:22:49.757Z,9.40
2023-05-18T09:23:49.791Z,8.90
2023-05-18T09:24:49.736Z,12.80
2023-05-18T09:25:49.743Z,9.70
2023-05-18T09:26:49.743Z,9.00
2023-05-18T09:27:49.748Z,11.50
2023-05-18T09:28:49.748Z,11.30
2023-05-18T09:29:49.743Z,9.00
2023-05-18T09:30:49.759Z,10.20
2023-05-18T09:31:49.767Z,7.40
2023-05-18T09:32:49.918Z,10.00
2023-05-18T09:33:49.814Z,8.70
2023-05-18T09:34:49.805Z,9.10
2023-05-18T09:35:49.825Z,9.80
2023-05-18T09:36:49.784Z,9.10
2023-05-18T09:37:49.792Z,11.30
2023-05-18T09:38:49.718Z,14.50
2023-05-18T09:39:49.680Z,10.00
2023-05-18T09:40:50.617Z,13.60
2023-05-18T09:41:49.698Z,9.40
2023-05-18T09:42:49.722Z,10.70
2023-05-18T09:43:49.689Z,11.40
2023-05-18T09:44:49.673Z,15.90
2023-05-18T09:45:49.693Z,11.50
2023-05-18T09:46:49.724Z,10.80
2023-05-18T09:47:49.838Z,10.10
2023-05-18T09:48:49.788Z,13.70
2023-05-18T09:49:49.773Z,9.70
2023-05-18T09:50:49.765Z,7.80
2023-05-18T09:51:49.788Z,8.50
2023-05-18T09:52:49.774Z,12.10
2023-05-18T09:53:49.773Z,13.70
2023-05-18T09:54:49.754Z,9.40
2023-05-18T09:55:49.757Z,11.50
2023-05-18T09:57:02.027Z,10.80
2023-05-18T09:57:50.725Z,9.20
2023-05-18T09:58:49.680Z,10.40
2023-05-18T09:59:49.673Z,13.00
2023-05-18T10:00:49.671Z,11.80
2023-05-18T10:01:49.618Z,13.60
2023-05-18T10:02:49.712Z,10.70
2023-05-18T10:03:49.599Z,12.90
2023-05-18T10:04:49.653Z,11.00
2023-05-18T10:05:49.623Z,8.90
2023-05-18T10:06:49.609Z,10.60
2023-05-18T10:07:49.620Z,8.00
2023-05-18T10:08:49.647Z,7.90
2023-05-18T10:09:49.661Z,11.60
2023-05-18T10:10:49.647Z,9.10
2023-05-18T10:11:49.654Z,16.50
2023-05-18T10:12:49.680Z,11.20
2023-05-18T10:13:49.687Z,11.30
2023-05-18T10:14:49.698Z,12.30
2023-05-18T10:15:49.700Z,11.80
2023-05-18T10:17:49.950Z,8.70
2023-05-18T10:18:49.807Z,9.50
2023-05-18T10:19:49.761Z,9.20
2023-05-18T10:20:49.765Z,10.50
2023-05-18T10:21:49.753Z,9.60
2023-05-18T10:22:49.788Z,8.50
2023-05-18T10:23:49.761Z,7.90
2023-05-18T10:24:49.723Z,9.00
2023-05-18T10:25:49.705Z,10.20
2023-05-18T10:26:52.004Z,10.50
2023-05-18T10:27:49.623Z,9.90
2023-05-18T10:28:49.592Z,7.10
2023-05-18T10:29:49.538Z,9.00
2023-05-18T10:30:49.537Z,7.70
2023-05-18T10:31:49.467Z,9.60
2023-05-18T10:32:49.481Z,11.20
2023-05-18T10:33:49.417Z,10.90
2023-05-18T10:34:49.333Z,9.40
2023-05-18T10:35:49.285Z,10.30
2023-05-18T10:36:49.256Z,7.60
2023-05-18T10:37:49.188Z,8.10
2023-05-18T10:38:49.116Z,8.20
2023-05-18T10:39:49.050Z,9.50
2023-05-18T10:40:49.019Z,9.80
2023-05-18T10:41:48.950Z,9.60
2023-05-18T10:42:48.912Z,8.30
2023-05-18T10:43:48.870Z,7.00
2023-05-18T10:44:48.829Z,9.10
2023-05-18T10:45:48.797Z,9.40
2023-05-18T10:46:48.931Z,8.60
2023-05-18T10:47:48.839Z,9.60
2023-05-18T10:48:48.821Z,8.70
2023-05-18T10:49:48.830Z,8.00
2023-05-18T10:50:48.813Z,9.80
2023-05-18T10:51:48.761Z,7.50
2023-05-18T10:52:48.715Z,8.50
2023-05-18T10:53:48.673Z,12.10
2023-05-18T10:54:48.628Z,8.30
2023-05-18T10:55:48.602Z,12.10
2023-05-18T10:56:48.511Z,10.30
2023-05-18T10:57:48.446Z,8.50
2023-05-18T10:58:48.384Z,8.00
2023-05-18T10:59:48.662Z,9.40
2023-05-18T11:00:48.280Z,9.20
2023-05-18T11:01:49.193Z,11.00
2023-05-18T11:02:48.175Z,10.70
2023-05-18T11:03:48.997Z,10.40
2023-05-18T11:04:48.170Z,9.40
2023-05-18T11:05:48.006Z,7.70
2023-05-18T11:06:47.969Z,7.60
2023-05-18T11:07:47.911Z,6.80
2023-05-18T11:08:48.597Z,5.90
2023-05-18T11:09:48.688Z,7.30
2023-05-18T11:10:47.693Z,8.50
2023-05-18T11:11:47.620Z,8.00
2023-05-18T11:12:47.571Z,7.20
2023-05-18T11:13:47.524Z,7.40
2023-05-18T11:14:47.467Z,7.30
2023-05-18T11:15:47.484Z,8.00
2023-05-18T11:16:47.558Z,11.10
2023-05-18T11:17:47.422Z,8.40
2023-05-18T11:18:47.368Z,6.80
2023-05-18T11:19:47.281Z,9.10
2023-05-18T11:20:47.233Z,7.90
2023-05-18T11:21:47.186Z,10.90
2023-05-18T11:22:47.132Z,7.90
2023-05-18T11:23:47.087Z,15.60
2023-05-18T11:24:47.060Z,7.50
2023-05-18T11:25:47.057Z,8.10
2023-05-18T11:26:47.013Z,9.20
2023-05-18T11:27:46.952Z,8.80
2023-05-18T11:28:48.947Z,11.20
2023-05-18T11:29:46.877Z,10.30
2023-05-18T11:30:46.898Z,7.40
2023-05-18T11:31:47.158Z,8.40
2023-05-18T11:32:46.986Z,11.00
2023-05-18T11:33:46.909Z,6.90
2023-05-18T11:34:46.841Z,8.70
2023-05-18T11:35:46.847Z,11.00
2023-05-18T11:36:46.820Z,9.10
2023-05-18T11:37:46.786Z,9.00
2023-05-18T11:38:46.788Z,9.60
2023-05-18T11:39:58.166Z,13.00
2023-05-18T11:40:47.770Z,9.20
2023-05-18T11:41:46.767Z,9.60
2023-05-18T11:42:46.748Z,12.00
2023-05-18T11:43:46.725Z,12.30
2023-05-18T11:44:46.721Z,8.90
2023-05-18T11:45:46.703Z,11.20
2023-05-18T11:46:46.727Z,9.60
2023-05-18T11:47:46.783Z,12.40
2023-05-18T11:48:46.832Z,10.60
2023-05-18T11:49:46.703Z,8.30
2023-05-18T11:50:46.692Z,10.20
2023-05-18T11:51:46.709Z,11.50
2023-05-18T11:52:46.698Z,9.20
2023-05-18T11:53:46.692Z,7.70
2023-05-18T11:54:46.711Z,9.70
2023-05-18T11:55:46.748Z,10.40
2023-05-18T11:56:46.703Z,9.40
2023-05-18T11:57:46.698Z,9.30
2023-05-18T11:58:46.672Z,13.40
2023-05-18T11:59:46.687Z,11.10
2023-05-18T12:00:53.663Z,8.90
2023-05-18T12:01:46.636Z,8.40
2023-05-18T12:02:46.785Z,10.00
2023-05-18T12:03:48.505Z,8.70
2023-05-18T12:04:46.758Z,13.30
2023-05-18T12:05:46.674Z,8.10
2023-05-18T12:06:46.636Z,8.00
2023-05-18T12:07:46.626Z,6.60
2023-05-18T12:08:46.566Z,9.10
2023-05-18T12:09:46.520Z,9.50
2023-05-18T12:10:46.490Z,9.90
2023-05-18T12:11:46.451Z,7.30
2023-05-18T12:12:46.421Z,9.20
2023-05-18T12:13:46.387Z,15.00
2023-05-18T12:14:46.354Z,8.00
2023-05-18T12:15:46.320Z,11.20
2023-05-18T12:16:46.328Z,9.70
2023-05-18T12:17:46.360Z,7.10
2023-05-18T12:18:46.327Z,10.90
2023-05-18T12:19:46.278Z,7.40
2023-05-18T12:20:46.249Z,9.70
2023-05-18T12:21:46.228Z,7.80
2023-05-18T12:22:46.234Z,7.40
2023-05-18T12:23:46.212Z,7.90
2023-05-18T12:24:46.201Z,7.60
2023-05-18T12:25:46.204Z,11.70
2023-05-18T12:26:46.203Z,13.30
2023-05-18T12:27:46.193Z,8.50
2023-05-18T12:28:46.209Z,10.60
2023-05-18T12:29:46.180Z,8.20
2023-05-18T12:30:46.195Z,10.00
2023-05-18T12:31:46.136Z,9.00
2023-05-18T12:32:46.175Z,11.60
2023-05-18T12:33:46.139Z,11.20
2023-05-18T12:34:46.116Z,7.40
2023-05-18T12:35:46.116Z,7.40
2023-05-18T12:36:46.105Z,6.80
2023-05-18T12:37:46.505Z,9.90
2023-05-18T12:38:46.120Z,9.40
2023-05-18T12:39:46.113Z,7.50
2023-05-18T12:40:46.075Z,8.00
2023-05-18T12:41:46.054Z,8.90
2023-05-18T12:42:46.078Z,8.20
2023-05-18T12:43:46.065Z,10.80
2023-05-18T12:44:46.050Z,7.00
2023-05-18T12:45:46.039Z,10.90
2023-05-18T12:46:46.059Z,9.30
2023-05-18T12:47:46.020Z,8.20
2023-05-18T12:48:46.005Z,7.90
2023-05-18T12:49:46.005Z,12.10
2023-05-18T12:50:46.290Z,8.70
2023-05-18T12:51:46.048Z,8.90
2023-05-18T12:52:46.043Z,7.50
2023-05-18T12:53:46.047Z,9.20
2023-05-18T12:54:46.042Z,8.10
2023-05-18T12:55:46.095Z,13.90
2023-05-18T12:56:46.070Z,7.20
2023-05-18T12:57:46.069Z,7.90
2023-05-18T12:58:46.083Z,10.00
2023-05-18T12:59:46.104Z,9.80
2023-05-18T13:00:46.084Z,9.60
2023-05-18T13:01:46.193Z,10.50